In Rescue
 
Open Full Screen Window  High Contrast Mode
Wind Gusting 17 knots
13
July 13, 2020 10:46 PM CDT
Present Weather: Thunderstorm
Weather Information
Wind Direction
  160 °
Wind Speed
  13 kt (15 mph)
Wind Gust
  17 kt (20 mph)
Altimeter
29.70 in
Visibility
---
Temperature
25° C
77° F
Dewpoint
20° C
68° F
Humidity
74%
1hr Rain Fall
00.00 in.
24hr Rain Fall
00.00 in.
Sky Condition
Broken @ 6,000 ft
Broken @ 5,000 ft

METAR KLXL 140346Z AUTO 16013G17KT TS BKN050 BKN060 25/20 A2970 RMK AO2 LTG DSNT ALQS

FAA Disclaimer: The data displayed is for advisory purposes only and is not to be used for flight planning or operations.